Silk Hope, North Carolina
Current Conditions -  °F | °C
As of 1:15 PM on Wednesday 26 Nov 2014 (Local Time) from K5W8 Reporting Station
Drizzle Drizzle  
Wind Chill: 39°   Ceiling: 900
Heat Index: 43°   Visibility: 10mi
Dew Point: 42°   Wind: 7mph
Humidity: 97%   Direction: 330°NNW
Pressure: 29.96"   Gusts: NA
Location:  35.7397°N, 79.4342°W
Report Text: K5W8 261815Z AUTO 33006KT 10SM DZ BKN009 OVC014 06/06 A2996 RMK AO2 T00600055
Loading
Personal Weather Stations






























Interactive Weather Map New forecast layout! Learn more

10-Day Weather Forecast

Advertisements
Track Severe Weather on mobile